createdAt,value
2018-05-09T00:00:11.806Z,2.80
2018-05-09T00:02:40.830Z,2.90
2018-05-09T00:05:09.088Z,2.70
2018-05-09T00:07:37.357Z,3.00
2018-05-09T00:10:05.625Z,2.90
2018-05-09T00:12:33.899Z,2.67
2018-05-09T00:15:02.196Z,3.10
2018-05-09T00:17:30.456Z,2.90
2018-05-09T00:19:58.721Z,3.13
2018-05-09T00:22:27.018Z,3.30
2018-05-09T00:24:55.354Z,2.80
2018-05-09T00:27:23.625Z,3.17
2018-05-09T00:29:51.931Z,3.10
2018-05-09T00:32:20.321Z,2.93
2018-05-09T00:34:48.564Z,3.10
2018-05-09T00:37:17.618Z,2.93
2018-05-09T00:39:45.909Z,2.90
2018-05-09T00:42:14.169Z,2.67
2018-05-09T00:44:43.208Z,2.90
2018-05-09T00:47:11.567Z,3.53
2018-05-09T00:49:40.698Z,3.20
2018-05-09T00:52:08.960Z,3.00
2018-05-09T00:54:37.993Z,2.85
2018-05-09T00:57:06.240Z,3.50
2018-05-09T00:59:34.524Z,3.30
2018-05-09T01:02:02.788Z,3.03
2018-05-09T01:04:31.031Z,3.20
2018-05-09T01:07:00.059Z,3.63
2018-05-09T01:09:28.455Z,3.03
2018-05-09T01:11:56.695Z,3.10
2018-05-09T01:14:24.996Z,3.00
2018-05-09T01:16:53.275Z,3.60
2018-05-09T01:19:21.544Z,3.53
2018-05-09T01:21:49.819Z,4.07
2018-05-09T01:24:18.093Z,3.50
2018-05-09T01:26:46.376Z,3.30
2018-05-09T01:29:14.656Z,3.43
2018-05-09T01:31:43.677Z,3.57
2018-05-09T01:34:11.927Z,3.20
2018-05-09T01:36:40.204Z,3.20
2018-05-09T01:39:08.468Z,2.93
2018-05-09T01:41:36.744Z,3.37
2018-05-09T01:44:05.033Z,3.07
2018-05-09T01:46:33.312Z,3.70
2018-05-09T01:49:02.312Z,3.30
2018-05-09T01:51:30.584Z,3.87
2018-05-09T01:53:59.599Z,3.40
2018-05-09T01:56:28.662Z,3.40
2018-05-09T01:58:56.946Z,3.73
2018-05-09T02:01:25.264Z,3.40
2018-05-09T02:03:53.528Z,3.27
2018-05-09T02:06:21.884Z,3.63
2018-05-09T02:08:50.926Z,3.23
2018-05-09T02:11:19.197Z,3.77
2018-05-09T02:13:47.456Z,3.60
2018-05-09T02:16:16.516Z,3.50
2018-05-09T02:18:44.762Z,3.70
2018-05-09T02:21:15.029Z,3.33
2018-05-09T02:23:43.294Z,3.50
2018-05-09T02:26:12.319Z,3.70
2018-05-09T02:28:40.600Z,3.40
2018-05-09T02:31:09.727Z,3.87
2018-05-09T02:33:37.897Z,3.40
2018-05-09T02:36:06.965Z,3.43
2018-05-09T02:38:35.207Z,3.80
2018-05-09T02:41:03.462Z,3.57
2018-05-09T02:43:31.764Z,3.87
2018-05-09T02:46:00.810Z,3.50
2018-05-09T02:48:29.068Z,3.43
2018-05-09T02:50:58.136Z,3.30
2018-05-09T02:53:26.404Z,3.93
2018-05-09T02:55:54.684Z,3.70
2018-05-09T02:58:22.962Z,3.67
2018-05-09T03:00:51.281Z,3.70
2018-05-09T03:03:19.550Z,3.60
2018-05-09T03:05:47.834Z,3.80
2018-05-09T03:08:16.099Z,3.50
2018-05-09T03:10:45.139Z,3.97
2018-05-09T03:13:13.410Z,4.00
2018-05-09T03:15:42.442Z,3.97
2018-05-09T03:18:10.711Z,4.10
2018-05-09T03:20:38.975Z,3.70
2018-05-09T03:23:07.258Z,4.30
2018-05-09T03:25:35.501Z,3.90
2018-05-09T03:28:03.779Z,3.70
2018-05-09T03:30:32.067Z,4.23
2018-05-09T03:33:01.080Z,4.00
2018-05-09T03:35:29.418Z,4.20
2018-05-09T03:37:57.755Z,4.27
2018-05-09T03:40:26.052Z,3.87
2018-05-09T03:42:54.349Z,4.07
2018-05-09T03:45:22.636Z,4.17
2018-05-09T03:47:50.923Z,3.87
2018-05-09T03:50:19.186Z,4.43
2018-05-09T03:52:48.234Z,4.00
2018-05-09T03:55:16.492Z,3.93
2018-05-09T03:57:45.528Z,4.50
2018-05-09T04:00:13.775Z,3.90
2018-05-09T04:03:00.383Z,3.97
2018-05-09T04:05:46.102Z,4.40
2018-05-09T04:08:31.822Z,4.43
2018-05-09T04:11:00.090Z,4.90
2018-05-09T04:13:28.387Z,4.70
2018-05-09T04:15:57.504Z,4.63
2018-05-09T04:18:26.552Z,4.47
2018-05-09T04:20:54.840Z,4.70
2018-05-09T04:23:23.118Z,4.83
2018-05-09T04:25:51.430Z,4.70
2018-05-09T04:28:19.714Z,4.90
2018-05-09T04:30:47.991Z,4.97
2018-05-09T04:33:16.268Z,4.90
2018-05-09T04:35:44.537Z,5.00
2018-05-09T04:38:13.575Z,4.37
2018-05-09T04:40:41.849Z,4.67
2018-05-09T04:43:10.122Z,4.67
2018-05-09T04:45:39.160Z,4.83
2018-05-09T04:48:08.178Z,4.73
2018-05-09T04:50:36.452Z,4.87
2018-05-09T04:53:04.772Z,4.47
2018-05-09T04:55:33.164Z,4.30
2018-05-09T04:58:01.326Z,4.00
2018-05-09T05:00:29.612Z,4.17
2018-05-09T05:02:57.869Z,4.47
2018-05-09T05:05:27.114Z,4.60
2018-05-09T05:07:55.424Z,4.33
2018-05-09T05:10:23.780Z,4.50
2018-05-09T05:12:52.062Z,4.13
2018-05-09T05:15:21.101Z,4.50
2018-05-09T05:17:49.424Z,4.50
2018-05-09T05:20:17.697Z,4.50
2018-05-09T05:22:45.979Z,4.53
2018-05-09T05:25:14.235Z,5.03
2018-05-09T05:27:43.290Z,4.65
2018-05-09T05:30:11.570Z,4.63
2018-05-09T05:32:39.859Z,4.87
2018-05-09T05:35:08.116Z,5.00
2018-05-09T05:37:37.175Z,4.70
2018-05-09T05:40:05.604Z,4.70
2018-05-09T05:42:33.921Z,5.07
2018-05-09T05:45:03.070Z,4.73
2018-05-09T05:47:31.238Z,4.50
2018-05-09T05:49:59.509Z,4.83
2018-05-09T05:52:28.631Z,4.53
2018-05-09T05:54:56.917Z,4.62
2018-05-09T05:57:25.964Z,5.17
2018-05-09T05:59:54.243Z,4.78
2018-05-09T06:02:22.509Z,4.87
2018-05-09T06:04:50.807Z,4.40
2018-05-09T06:07:19.097Z,4.43
2018-05-09T06:09:47.366Z,4.60
2018-05-09T06:12:15.634Z,4.30
2018-05-09T06:14:43.893Z,4.17
2018-05-09T06:17:12.300Z,4.03
2018-05-09T06:19:40.570Z,4.37
2018-05-09T06:22:08.842Z,4.33
2018-05-09T06:24:37.114Z,4.33
2018-05-09T06:27:05.395Z,4.43
2018-05-09T06:29:34.432Z,4.00
2018-05-09T06:32:02.713Z,4.03
2018-05-09T06:34:31.003Z,3.90
2018-05-09T06:36:59.318Z,4.77
2018-05-09T06:39:27.601Z,4.40
2018-05-09T06:41:55.870Z,4.53
2018-05-09T06:44:24.154Z,4.50
2018-05-09T06:46:53.481Z,4.70
2018-05-09T06:49:21.776Z,4.30
2018-05-09T06:51:50.077Z,4.30
2018-05-09T06:54:18.315Z,3.97
2018-05-09T06:56:47.377Z,4.30
2018-05-09T06:59:15.655Z,4.63
2018-05-09T07:01:43.903Z,4.53
2018-05-09T07:04:12.944Z,4.30
2018-05-09T07:06:41.405Z,4.30
2018-05-09T07:09:09.480Z,4.17
2018-05-09T07:11:37.748Z,4.47
2018-05-09T07:14:06.030Z,4.37
2018-05-09T07:16:34.291Z,4.13
2018-05-09T07:19:02.535Z,4.23
2018-05-09T07:21:30.820Z,4.10
2018-05-09T07:23:59.079Z,3.97
2018-05-09T07:26:27.352Z,4.00
2018-05-09T07:28:55.641Z,4.10
2018-05-09T07:31:23.938Z,4.30
2018-05-09T07:33:52.225Z,4.37
2018-05-09T07:38:33.842Z,4.10
2018-05-09T07:41:02.873Z,4.23
2018-05-09T07:43:31.249Z,4.20
2018-05-09T07:45:59.547Z,4.50
2018-05-09T07:48:27.831Z,5.10
2018-05-09T07:50:56.131Z,4.90
2018-05-09T07:53:24.411Z,4.43
2018-05-09T07:55:52.716Z,4.70
2018-05-09T07:58:21.005Z,5.10
2018-05-09T08:00:49.310Z,5.10
2018-05-09T08:03:17.570Z,4.63
2018-05-09T08:05:45.819Z,4.80
2018-05-09T08:08:14.089Z,4.67
2018-05-09T08:10:42.362Z,4.80
2018-05-09T08:13:10.618Z,4.83
2018-05-09T08:15:39.644Z,4.77
2018-05-09T08:18:07.896Z,5.00
2018-05-09T08:20:36.940Z,4.23
2018-05-09T08:23:05.208Z,4.80
2018-05-09T08:25:34.244Z,4.97
2018-05-09T08:28:02.492Z,5.07
2018-05-09T08:30:30.779Z,4.93
2018-05-09T08:32:59.047Z,4.40
2018-05-09T08:35:27.332Z,4.23
2018-05-09T08:37:55.604Z,4.70
2018-05-09T08:40:23.883Z,4.70
2018-05-09T08:42:52.160Z,4.70
2018-05-09T08:45:20.431Z,4.87
2018-05-09T08:47:49.491Z,4.67
2018-05-09T08:50:17.846Z,4.97
2018-05-09T08:52:46.131Z,5.00
2018-05-09T08:55:15.162Z,4.90
2018-05-09T08:57:43.420Z,4.73
2018-05-09T09:00:12.464Z,4.33
2018-05-09T09:02:40.740Z,4.33
2018-05-09T09:05:09.033Z,4.77
2018-05-09T09:07:37.316Z,4.90
2018-05-09T09:10:05.562Z,4.37
2018-05-09T09:12:33.871Z,4.43
2018-05-09T09:15:02.190Z,4.70
2018-05-09T09:17:31.224Z,4.35
2018-05-09T09:19:59.477Z,4.60
2018-05-09T09:22:28.511Z,4.40
2018-05-09T09:24:56.819Z,4.90
2018-05-09T09:27:25.080Z,4.30
2018-05-09T09:29:53.365Z,4.30
2018-05-09T09:32:21.638Z,4.60
2018-05-09T09:34:50.774Z,4.62
2018-05-09T09:37:19.040Z,3.93
2018-05-09T09:39:47.346Z,4.33
2018-05-09T09:42:16.353Z,3.90
2018-05-09T09:44:45.439Z,4.13
2018-05-09T09:47:14.561Z,4.97
2018-05-09T09:49:42.829Z,4.00
2018-05-09T09:52:11.125Z,4.10
2018-05-09T09:54:39.409Z,4.07
2018-05-09T09:57:07.674Z,4.60
2018-05-09T09:59:35.957Z,4.70
2018-05-09T10:02:04.222Z,4.20
2018-05-09T10:04:32.483Z,4.30
2018-05-09T10:07:01.549Z,4.07
2018-05-09T10:09:29.814Z,4.13
2018-05-09T10:11:58.094Z,4.30
2018-05-09T10:14:26.454Z,4.03
2018-05-09T10:16:54.729Z,4.30
2018-05-09T10:19:24.530Z,3.90
2018-05-09T10:21:52.816Z,4.03
2018-05-09T10:24:21.101Z,4.00
2018-05-09T10:26:49.505Z,3.77
2018-05-09T10:29:17.779Z,3.80
2018-05-09T10:31:46.129Z,3.97
2018-05-09T10:34:14.368Z,3.43
2018-05-09T10:36:42.649Z,3.60
2018-05-09T10:39:10.908Z,3.83
2018-05-09T10:41:39.932Z,3.83
2018-05-09T10:44:08.203Z,4.10
2018-05-09T10:46:37.269Z,3.40
2018-05-09T10:49:05.528Z,4.00
2018-05-09T10:51:33.873Z,4.70
2018-05-09T10:54:02.208Z,4.37
2018-05-09T10:56:30.495Z,3.83
2018-05-09T10:58:59.607Z,4.00
2018-05-09T11:01:27.874Z,5.07
2018-05-09T11:03:56.912Z,4.00
2018-05-09T11:06:25.176Z,3.60
2018-05-09T11:08:54.227Z,3.73
2018-05-09T11:11:22.594Z,3.93
2018-05-09T11:13:50.917Z,3.42
2018-05-09T11:16:19.277Z,3.57
2018-05-09T11:18:48.383Z,3.60
2018-05-09T11:21:17.430Z,4.03
2018-05-09T11:23:45.989Z,4.30
2018-05-09T11:26:15.003Z,3.80
2018-05-09T11:28:43.302Z,3.90
2018-05-09T11:31:11.664Z,3.63
2018-05-09T11:33:39.940Z,4.20
2018-05-09T11:36:11.063Z,4.00
2018-05-09T11:38:39.449Z,3.80
2018-05-09T11:41:07.714Z,4.07
2018-05-09T11:43:36.773Z,3.50
2018-05-09T11:46:05.120Z,4.20
2018-05-09T11:48:33.386Z,4.07
2018-05-09T11:51:02.423Z,3.80
2018-05-09T11:53:30.710Z,4.13
2018-05-09T11:55:58.998Z,3.60
2018-05-09T11:58:27.257Z,3.83
2018-05-09T12:00:55.539Z,3.42
2018-05-09T12:03:23.816Z,3.50
2018-05-09T12:05:52.123Z,3.87
2018-05-09T12:08:20.452Z,3.70
2018-05-09T12:10:48.868Z,4.20
2018-05-09T12:13:17.024Z,3.80
2018-05-09T12:15:46.102Z,3.87
2018-05-09T12:18:15.134Z,3.80
2018-05-09T12:20:44.333Z,4.10
2018-05-09T12:23:12.605Z,3.97
2018-05-09T12:25:40.936Z,3.83
2018-05-09T12:28:10.048Z,4.03
2018-05-09T12:30:39.680Z,3.57
2018-05-09T12:33:08.398Z,3.63
2018-05-09T12:35:36.964Z,3.67
2018-05-09T12:38:07.287Z,4.20
2018-05-09T12:40:36.715Z,4.63
2018-05-09T12:43:05.816Z,3.37
2018-05-09T12:45:34.940Z,3.77
2018-05-09T12:48:03.315Z,4.00
2018-05-09T12:50:32.441Z,3.17
2018-05-09T12:53:01.551Z,3.57
2018-05-09T12:55:30.655Z,3.73
2018-05-09T12:57:59.767Z,3.57
2018-05-09T13:00:28.084Z,3.70
2018-05-09T13:02:56.375Z,3.93
2018-05-09T13:05:24.628Z,4.00
2018-05-09T13:07:53.759Z,3.80
2018-05-09T13:10:22.055Z,3.77
2018-05-09T13:12:50.341Z,3.53
2018-05-09T13:15:18.579Z,3.50
2018-05-09T13:17:46.892Z,3.73
2018-05-09T13:20:15.939Z,3.93
2018-05-09T13:22:44.206Z,4.20
2018-05-09T13:25:13.246Z,4.30
2018-05-09T13:27:41.512Z,3.50
2018-05-09T13:30:09.872Z,4.23
2018-05-09T13:32:38.128Z,3.87
2018-05-09T13:35:06.388Z,3.70
2018-05-09T13:37:34.664Z,3.97
2018-05-09T13:40:03.868Z,3.90
2018-05-09T13:42:32.067Z,3.77
2018-05-09T13:45:00.322Z,3.93
2018-05-09T13:47:28.604Z,3.87
2018-05-09T13:49:56.938Z,3.70
2018-05-09T13:52:25.974Z,3.87
2018-05-09T13:54:54.362Z,3.70
2018-05-09T13:57:22.556Z,3.50
2018-05-09T13:59:51.245Z,4.00
2018-05-09T14:02:19.626Z,3.70
2018-05-09T14:04:47.902Z,3.67
2018-05-09T14:07:17.035Z,3.50
2018-05-09T14:09:45.418Z,3.83
2018-05-09T14:12:13.804Z,4.40
2018-05-09T14:14:42.918Z,3.40
2018-05-09T14:17:11.354Z,3.80
2018-05-09T14:19:40.358Z,4.03
2018-05-09T14:22:09.457Z,4.40
2018-05-09T14:24:38.828Z,3.63
2018-05-09T14:27:07.248Z,3.97
2018-05-09T14:29:37.042Z,3.80
2018-05-09T14:32:06.347Z,4.10
2018-05-09T14:34:41.220Z,4.20
2018-05-09T14:37:09.638Z,3.67
2018-05-09T14:39:47.146Z,3.90
2018-05-09T14:42:18.542Z,4.00
2018-05-09T14:44:48.805Z,4.20
2018-05-09T14:47:18.495Z,4.80
2018-05-09T14:49:48.064Z,4.70
2018-05-09T14:52:16.330Z,4.10
2018-05-09T14:54:45.749Z,4.30
2018-05-09T14:57:15.083Z,4.60
2018-05-09T14:59:44.118Z,5.07
2018-05-09T15:02:12.371Z,4.70
2018-05-09T15:04:41.423Z,4.50
2018-05-09T15:07:11.053Z,4.47
2018-05-09T15:09:39.398Z,6.20
2018-05-09T15:12:07.785Z,5.03
2018-05-09T15:14:36.952Z,4.87
2018-05-09T15:17:05.485Z,4.60
2018-05-09T15:19:34.678Z,4.73
2018-05-09T15:22:02.885Z,4.33
2018-05-09T15:24:32.014Z,5.30
2018-05-09T15:27:00.325Z,6.43
2018-05-09T15:29:28.699Z,4.67
2018-05-09T15:31:57.726Z,3.93
2018-05-09T15:34:26.100Z,4.40
2018-05-09T15:36:54.385Z,4.70
2018-05-09T15:39:22.702Z,4.17
2018-05-09T15:41:50.949Z,4.43
2018-05-09T15:44:20.172Z,4.50
2018-05-09T15:46:48.457Z,4.63
2018-05-09T15:49:17.482Z,4.37
2018-05-09T15:51:45.744Z,4.67
2018-05-09T15:54:14.047Z,4.87
2018-05-09T15:56:43.172Z,4.23
2018-05-09T15:59:11.424Z,4.47
2018-05-09T16:01:39.706Z,4.17
2018-05-09T16:04:08.039Z,4.60
2018-05-09T16:06:36.442Z,4.30
2018-05-09T16:09:04.752Z,4.60
2018-05-09T16:11:33.010Z,4.23
2018-05-09T16:14:02.040Z,4.30
2018-05-09T16:16:31.348Z,4.00
2018-05-09T16:18:59.626Z,5.60
2018-05-09T16:21:28.645Z,5.03
2018-05-09T16:23:57.090Z,4.93
2018-05-09T16:26:25.344Z,4.33
2018-05-09T16:28:53.644Z,4.70
2018-05-09T16:31:22.006Z,4.27
2018-05-09T16:33:50.297Z,4.37
2018-05-09T16:36:18.605Z,5.10
2018-05-09T16:38:47.596Z,4.50
2018-05-09T16:41:15.982Z,4.80
2018-05-09T16:43:44.367Z,5.30
2018-05-09T16:46:13.407Z,4.73
2018-05-09T16:48:41.667Z,4.27
2018-05-09T16:51:09.959Z,4.90
2018-05-09T16:53:39.082Z,5.00
2018-05-09T16:56:07.382Z,4.73
2018-05-09T16:58:35.959Z,5.10
2018-05-09T17:01:04.985Z,4.30
2018-05-09T17:03:33.256Z,4.00
2018-05-09T17:06:02.358Z,4.20
2018-05-09T17:08:31.478Z,4.27
2018-05-09T17:11:00.000Z,4.33
2018-05-09T17:13:28.351Z,4.47
2018-05-09T17:15:57.471Z,4.63
2018-05-09T17:18:26.495Z,4.70
2018-05-09T17:20:54.780Z,5.23
2018-05-09T17:23:23.820Z,4.87
2018-05-09T17:25:52.198Z,4.80
2018-05-09T17:28:20.457Z,5.23
2018-05-09T17:30:48.752Z,5.60
2018-05-09T17:33:16.987Z,5.90
2018-05-09T17:35:45.239Z,5.83
2018-05-09T17:38:13.507Z,5.40
2018-05-09T17:40:42.522Z,7.03
2018-05-09T17:43:11.559Z,5.07
2018-05-09T17:45:39.975Z,6.67
2018-05-09T17:48:08.339Z,11.83
2018-05-09T17:50:36.598Z,6.10
2018-05-09T17:53:05.723Z,5.40
2018-05-09T17:55:34.100Z,5.07
2018-05-09T17:58:03.231Z,6.67
2018-05-09T18:00:32.260Z,8.50
2018-05-09T18:03:00.547Z,5.40
2018-05-09T18:05:28.816Z,5.33
2018-05-09T18:07:57.087Z,5.40
2018-05-09T18:10:26.151Z,5.10
2018-05-09T18:12:54.515Z,5.65
2018-05-09T18:15:22.800Z,5.43
2018-05-09T18:17:51.067Z,5.23
2018-05-09T18:20:20.093Z,4.93
2018-05-09T18:22:48.364Z,5.80
2018-05-09T18:25:17.497Z,5.50
2018-05-09T18:27:46.522Z,5.50
2018-05-09T18:30:15.007Z,5.20
2018-05-09T18:32:43.267Z,5.10
2018-05-09T18:35:12.395Z,20.50
2018-05-09T18:37:41.510Z,47.43
2018-05-09T18:40:10.634Z,8.30
2018-05-09T18:42:38.897Z,6.17
2018-05-09T18:45:07.926Z,8.90
2018-05-09T18:47:36.198Z,13.73
2018-05-09T18:50:05.224Z,5.90
2018-05-09T18:52:35.389Z,24.08
2018-05-09T18:55:03.748Z,6.50
2018-05-09T18:57:32.779Z,7.70
2018-05-09T19:00:01.050Z,6.10
2018-05-09T19:02:30.178Z,7.33
2018-05-09T19:04:58.547Z,5.60
2018-05-09T19:07:26.811Z,5.40
2018-05-09T19:09:55.089Z,5.23
2018-05-09T19:12:23.419Z,8.50
2018-05-09T19:14:51.759Z,7.40
2018-05-09T19:17:20.091Z,6.57
2018-05-09T19:19:49.251Z,6.60
2018-05-09T19:22:17.540Z,5.53
2018-05-09T19:24:45.894Z,6.17
2018-05-09T19:27:14.186Z,5.50
2018-05-09T19:29:42.472Z,6.03
2018-05-09T19:32:10.725Z,6.10
2018-05-09T19:34:39.053Z,5.90
2018-05-09T19:37:07.369Z,6.00
2018-05-09T19:39:35.757Z,6.23
2018-05-09T19:42:04.019Z,7.87
2018-05-09T19:44:33.189Z,12.97
2018-05-09T19:47:01.559Z,13.87
2018-05-09T19:49:29.856Z,14.03
2018-05-09T19:51:58.163Z,17.57
2018-05-09T19:54:26.482Z,17.20
2018-05-09T19:56:54.797Z,16.20
2018-05-09T19:59:23.385Z,17.13
2018-05-09T20:01:55.742Z,15.60
2018-05-09T20:04:27.260Z,16.57
2018-05-09T20:06:56.066Z,17.80
2018-05-09T20:09:30.565Z,15.83
2018-05-09T20:11:59.620Z,18.47
2018-05-09T20:14:30.011Z,17.40
2018-05-09T20:16:59.327Z,14.60
2018-05-09T20:19:30.551Z,16.97
2018-05-09T20:21:59.814Z,17.60
2018-05-09T20:24:28.072Z,16.63
2018-05-09T20:26:56.368Z,14.47
2018-05-09T20:29:24.693Z,19.25
2018-05-09T20:32:10.718Z,20.43
2018-05-09T20:34:39.103Z,16.33
2018-05-09T20:37:07.377Z,16.57
2018-05-09T20:39:35.667Z,16.53
2018-05-09T20:42:04.738Z,16.10
2018-05-09T20:44:33.168Z,15.67
2018-05-09T20:47:02.288Z,15.50
2018-05-09T20:49:30.664Z,15.63
2018-05-09T20:51:59.700Z,17.03
2018-05-09T20:54:28.056Z,16.80
2018-05-09T20:56:57.091Z,17.47
2018-05-09T20:59:25.384Z,18.17
2018-05-09T21:01:53.663Z,16.57
2018-05-09T21:04:21.977Z,19.43
2018-05-09T21:06:50.236Z,18.63
2018-05-09T21:09:19.354Z,17.47
2018-05-09T21:12:05.434Z,17.90
2018-05-09T21:14:33.951Z,18.57
2018-05-09T21:17:02.131Z,18.13
2018-05-09T21:19:31.363Z,19.93
2018-05-09T21:21:59.642Z,17.90
2018-05-09T21:24:28.760Z,19.17
2018-05-09T21:26:57.867Z,20.33
2018-05-09T21:29:26.143Z,18.83
2018-05-09T21:31:55.276Z,18.33
2018-05-09T21:34:23.561Z,18.30
2018-05-09T21:36:51.857Z,21.50
2018-05-09T21:39:20.131Z,19.33
2018-05-09T21:41:49.206Z,20.67
2018-05-09T21:44:17.473Z,19.97
2018-05-09T21:46:45.831Z,20.60
2018-05-09T21:49:14.094Z,20.30
2018-05-09T21:51:43.310Z,19.87
2018-05-09T21:54:11.728Z,21.07
2018-05-09T21:56:39.991Z,22.87
2018-05-09T21:59:09.042Z,21.10
2018-05-09T22:01:37.312Z,21.47
2018-05-09T22:04:05.690Z,24.93
2018-05-09T22:06:35.010Z,23.23
2018-05-09T22:09:04.019Z,22.27
2018-05-09T22:11:32.304Z,24.20
2018-05-09T22:14:01.432Z,25.20
2018-05-09T22:16:29.741Z,27.10
2018-05-09T22:18:58.053Z,28.07
2018-05-09T22:21:26.304Z,28.53
2018-05-09T22:23:54.593Z,30.47
2018-05-09T22:26:23.014Z,29.53
2018-05-09T22:28:51.379Z,30.63
2018-05-09T22:31:19.673Z,31.83
2018-05-09T22:33:47.953Z,31.33
2018-05-09T22:36:16.314Z,33.57
2018-05-09T22:38:44.626Z,32.27
2018-05-09T22:41:13.679Z,34.03
2018-05-09T22:43:41.952Z,34.07
2018-05-09T22:46:10.253Z,33.10
2018-05-09T22:48:38.569Z,35.33
2018-05-09T22:51:06.822Z,35.17
2018-05-09T22:53:35.160Z,35.13
2018-05-09T22:56:03.493Z,36.17
2018-05-09T22:58:31.784Z,36.20
2018-05-09T23:01:00.800Z,36.30
2018-05-09T23:03:29.078Z,35.93
2018-05-09T23:05:57.370Z,38.50
2018-05-09T23:08:26.471Z,37.67
2018-05-09T23:10:55.574Z,36.87
2018-05-09T23:13:24.639Z,35.20
2018-05-09T23:15:52.997Z,36.73
2018-05-09T23:18:21.296Z,36.63
2018-05-09T23:20:49.562Z,37.22
2018-05-09T23:23:18.610Z,36.27
2018-05-09T23:25:46.974Z,36.27
2018-05-09T23:28:15.262Z,37.63
2018-05-09T23:30:44.301Z,36.47
2018-05-09T23:33:12.764Z,36.37
2018-05-09T23:35:41.849Z,37.23
2018-05-09T23:38:10.139Z,36.97
2018-05-09T23:40:39.447Z,36.40
2018-05-09T23:43:07.672Z,35.67
2018-05-09T23:45:35.960Z,36.43
2018-05-09T23:48:04.250Z,37.80
2018-05-09T23:50:32.619Z,37.57
2018-05-09T23:53:01.662Z,36.40
2018-05-09T23:55:30.067Z,35.87
2018-05-09T23:57:58.317Z,37.33
